North Vernon, Indiana
Current Conditions -  °F | °C
As of 5:59 PM on Thursday 27 Nov 2014 (Local Time) from KGEZ Reporting Station
Light Snow Light Snow  
Wind Chill: 19°   Ceiling: 3000
Heat Index: 28°   Visibility: 3mi
Dew Point: 22°   Wind: 10mph
Humidity: 78%   Direction: 280°W
Pressure: 30.37"   Gusts: NA
Location:  39.01°N, 85.62°W
Report Text: KGEZ 272259Z AUTO 28009KT 3SM -SN SCT024 OVC030 M02/M06 A3037 RMK AO2 P0000 T10221056
Loading
Personal Weather Stations






























Interactive Weather Map New forecast layout! Learn more

10-Day Weather Forecast

Advertisements
Track Severe Weather on mobile